sensor_id;sensor_type;location;lat;lon;timestamp;temperature;humidity
16907;DHT22;8570;52.380;4.654;2023-07-02T00:00:21;17.10;99.90
16907;DHT22;8570;52.380;4.654;2023-07-02T00:05:25;17.10;99.90
16907;DHT22;8570;52.380;4.654;2023-07-02T00:10:27;17.00;99.90
16907;DHT22;8570;52.380;4.654;2023-07-02T00:15:29;17.00;99.90
16907;DHT22;8570;52.380;4.654;2023-07-02T00:20:34;16.90;99.90
16907;DHT22;8570;52.380;4.654;2023-07-02T00:25:38;16.90;99.90
16907;DHT22;8570;52.380;4.654;2023-07-02T00:30:40;16.80;99.90
16907;DHT22;8570;52.380;4.654;2023-07-02T00:35:45;16.80;99.90
16907;DHT22;8570;52.380;4.654;2023-07-02T00:40:50;16.70;99.90
16907;DHT22;8570;52.380;4.654;2023-07-02T00:45:52;16.70;99.90
16907;DHT22;8570;52.380;4.654;2023-07-02T00:50:55;16.60;99.90
16907;DHT22;8570;52.380;4.654;2023-07-02T00:55:57;16.60;99.90
16907;DHT22;8570;52.380;4.654;2023-07-02T01:00:59;16.60;99.90
16907;DHT22;8570;52.380;4.654;2023-07-02T01:06:03;16.50;99.90
16907;DHT22;8570;52.380;4.654;2023-07-02T01:11:05;16.50;99.90
16907;DHT22;8570;52.380;4.654;2023-07-02T01:16:07;16.40;99.90
16907;DHT22;8570;52.380;4.654;2023-07-02T01:21:10;16.40;99.90
16907;DHT22;8570;52.380;4.654;2023-07-02T01:26:12;16.30;99.90
16907;DHT22;8570;52.380;4.654;2023-07-02T01:31:17;16.30;99.90
16907;DHT22;8570;52.380;4.654;2023-07-02T01:36:21;16.20;99.90
16907;DHT22;8570;52.380;4.654;2023-07-02T01:41:23;16.20;99.90
16907;DHT22;8570;52.380;4.654;2023-07-02T01:46:24;16.20;99.90
16907;DHT22;8570;52.380;4.654;2023-07-02T01:51:28;16.10;99.90
16907;DHT22;8570;52.380;4.654;2023-07-02T01:56:30;16.10;99.90
16907;DHT22;8570;52.380;4.654;2023-07-02T02:01:35;16.10;99.90
16907;DHT22;8570;52.380;4.654;2023-07-02T02:06:39;16.00;99.90
16907;DHT22;8570;52.380;4.654;2023-07-02T02:11:43;16.00;99.90
16907;DHT22;8570;52.380;4.654;2023-07-02T02:16:45;16.00;99.90
16907;DHT22;8570;52.380;4.654;2023-07-02T02:21:48;15.90;99.90
16907;DHT22;8570;52.380;4.654;2023-07-02T02:26:50;15.90;99.90
16907;DHT22;8570;52.380;4.654;2023-07-02T02:31:52;15.90;99.90
16907;DHT22;8570;52.380;4.654;2023-07-02T02:36:56;15.90;99.90
16907;DHT22;8570;52.380;4.654;2023-07-02T02:41:58;15.90;99.90
16907;DHT22;8570;52.380;4.654;2023-07-02T02:47:00;15.80;99.90
16907;DHT22;8570;52.380;4.654;2023-07-02T02:52:08;15.80;99.90
16907;DHT22;8570;52.380;4.654;2023-07-02T02:57:10;15.80;99.90
16907;DHT22;8570;52.380;4.654;2023-07-02T03:02:12;15.70;99.90
16907;DHT22;8570;52.380;4.654;2023-07-02T03:07:19;15.70;99.90
16907;DHT22;8570;52.380;4.654;2023-07-02T03:12:25;15.70;99.90
16907;DHT22;8570;52.380;4.654;2023-07-02T03:17:30;15.70;99.90
16907;DHT22;8570;52.380;4.654;2023-07-02T03:22:38;15.60;99.90
16907;DHT22;8570;52.380;4.654;2023-07-02T03:27:40;15.60;99.90
16907;DHT22;8570;52.380;4.654;2023-07-02T03:32:42;15.60;99.90
16907;DHT22;8570;52.380;4.654;2023-07-02T03:37:46;15.60;99.90
16907;DHT22;8570;52.380;4.654;2023-07-02T03:42:49;15.50;99.90
16907;DHT22;8570;52.380;4.654;2023-07-02T03:47:51;15.50;99.90
16907;DHT22;8570;52.380;4.654;2023-07-02T03:52:55;15.50;99.90
16907;DHT22;8570;52.380;4.654;2023-07-02T03:57:59;15.40;99.90
16907;DHT22;8570;52.380;4.654;2023-07-02T04:03:03;15.40;99.90
16907;DHT22;8570;52.380;4.654;2023-07-02T04:08:11;15.40;99.90
16907;DHT22;8570;52.380;4.654;2023-07-02T04:13:13;15.40;99.90
16907;DHT22;8570;52.380;4.654;2023-07-02T04:18:16;15.40;99.90
16907;DHT22;8570;52.380;4.654;2023-07-02T04:23:20;15.40;99.90
16907;DHT22;8570;52.380;4.654;2023-07-02T04:28:22;15.40;99.90
16907;DHT22;8570;52.380;4.654;2023-07-02T04:33:24;15.40;99.90
16907;DHT22;8570;52.380;4.654;2023-07-02T04:38:30;15.40;99.90
16907;DHT22;8570;52.380;4.654;2023-07-02T04:43:38;15.40;99.90
16907;DHT22;8570;52.380;4.654;2023-07-02T04:48:41;15.40;99.90
16907;DHT22;8570;52.380;4.654;2023-07-02T04:53:50;15.40;99.90
16907;DHT22;8570;52.380;4.654;2023-07-02T04:59:02;15.40;99.90
16907;DHT22;8570;52.380;4.654;2023-07-02T05:04:05;15.40;99.90
16907;DHT22;8570;52.380;4.654;2023-07-02T05:09:09;15.40;99.90
16907;DHT22;8570;52.380;4.654;2023-07-02T05:14:13;15.50;99.90
16907;DHT22;8570;52.380;4.654;2023-07-02T05:19:15;15.50;99.90
16907;DHT22;8570;52.380;4.654;2023-07-02T05:24:22;15.50;99.90
16907;DHT22;8570;52.380;4.654;2023-07-02T05:29:27;15.60;99.90
16907;DHT22;8570;52.380;4.654;2023-07-02T05:34:32;15.60;99.90
16907;DHT22;8570;52.380;4.654;2023-07-02T05:39:35;15.70;99.90
16907;DHT22;8570;52.380;4.654;2023-07-02T05:44:37;15.70;99.90
16907;DHT22;8570;52.380;4.654;2023-07-02T05:49:41;15.80;99.90
16907;DHT22;8570;52.380;4.654;2023-07-02T05:54:46;15.80;99.90
16907;DHT22;8570;52.380;4.654;2023-07-02T05:59:57;15.80;99.90
16907;DHT22;8570;52.380;4.654;2023-07-02T06:04:59;15.80;99.90
16907;DHT22;8570;52.380;4.654;2023-07-02T06:10:04;15.80;99.90
16907;DHT22;8570;52.380;4.654;2023-07-02T06:15:10;15.80;99.90
16907;DHT22;8570;52.380;4.654;2023-07-02T06:20:12;15.90;99.90
16907;DHT22;8570;52.380;4.654;2023-07-02T06:25:29;15.90;99.90
16907;DHT22;8570;52.380;4.654;2023-07-02T06:30:33;15.90;99.90
16907;DHT22;8570;52.380;4.654;2023-07-02T06:35:37;16.00;99.90
16907;DHT22;8570;52.380;4.654;2023-07-02T06:40:47;16.00;99.90
16907;DHT22;8570;52.380;4.654;2023-07-02T06:45:53;16.00;99.90
16907;DHT22;8570;52.380;4.654;2023-07-02T06:50:58;16.10;99.90
16907;DHT22;8570;52.380;4.654;2023-07-02T06:56:05;16.10;99.90
16907;DHT22;8570;52.380;4.654;2023-07-02T07:01:08;16.20;99.90
16907;DHT22;8570;52.380;4.654;2023-07-02T07:06:13;16.20;99.90
16907;DHT22;8570;52.380;4.654;2023-07-02T07:11:16;16.40;99.90
16907;DHT22;8570;52.380;4.654;2023-07-02T07:16:35;16.30;99.90
16907;DHT22;8570;52.380;4.654;2023-07-02T07:21:51;16.40;99.90
16907;DHT22;8570;52.380;4.654;2023-07-02T07:27:00;16.50;99.90
16907;DHT22;8570;52.380;4.654;2023-07-02T07:32:02;16.50;99.90
16907;DHT22;8570;52.380;4.654;2023-07-02T07:37:05;16.60;99.90
16907;DHT22;8570;52.380;4.654;2023-07-02T07:42:21;16.70;99.90
16907;DHT22;8570;52.380;4.654;2023-07-02T07:47:38;16.80;99.90
16907;DHT22;8570;52.380;4.654;2023-07-02T07:52:44;16.80;99.90
16907;DHT22;8570;52.380;4.654;2023-07-02T07:57:54;16.90;99.90
16907;DHT22;8570;52.380;4.654;2023-07-02T08:02:59;17.00;99.90
16907;DHT22;8570;52.380;4.654;2023-07-02T08:08:06;17.20;99.90
16907;DHT22;8570;52.380;4.654;2023-07-02T08:13:15;17.30;99.90
16907;DHT22;8570;52.380;4.654;2023-07-02T08:18:21;17.40;99.90
16907;DHT22;8570;52.380;4.654;2023-07-02T08:23:36;17.50;99.90
16907;DHT22;8570;52.380;4.654;2023-07-02T08:28:49;17.60;99.90
16907;DHT22;8570;52.380;4.654;2023-07-02T08:33:57;17.70;99.90
16907;DHT22;8570;52.380;4.654;2023-07-02T08:39:07;17.90;99.90
16907;DHT22;8570;52.380;4.654;2023-07-02T08:44:14;18.10;99.90
16907;DHT22;8570;52.380;4.654;2023-07-02T08:49:27;18.20;99.90
16907;DHT22;8570;52.380;4.654;2023-07-02T08:54:36;18.30;99.90
16907;DHT22;8570;52.380;4.654;2023-07-02T08:59:56;18.30;99.90
16907;DHT22;8570;52.380;4.654;2023-07-02T09:05:02;18.30;99.90
16907;DHT22;8570;52.380;4.654;2023-07-02T09:10:32;18.50;99.90
16907;DHT22;8570;52.380;4.654;2023-07-02T09:15:49;18.50;99.90
16907;DHT22;8570;52.380;4.654;2023-07-02T09:21:15;18.60;99.90
16907;DHT22;8570;52.380;4.654;2023-07-02T09:26:50;18.50;99.90
16907;DHT22;8570;52.380;4.654;2023-07-02T09:32:25;18.40;99.90
16907;DHT22;8570;52.380;4.654;2023-07-02T09:37:38;18.40;99.90
16907;DHT22;8570;52.380;4.654;2023-07-02T09:42:51;18.40;99.90
16907;DHT22;8570;52.380;4.654;2023-07-02T09:47:59;18.50;99.90
16907;DHT22;8570;52.380;4.654;2023-07-02T09:53:04;18.60;99.90
16907;DHT22;8570;52.380;4.654;2023-07-02T09:58:12;18.80;99.90
16907;DHT22;8570;52.380;4.654;2023-07-02T10:03:49;18.90;99.90
16907;DHT22;8570;52.380;4.654;2023-07-02T10:14:25;19.40;99.90
16907;DHT22;8570;52.380;4.654;2023-07-02T10:19:52;19.60;99.90
16907;DHT22;8570;52.380;4.654;2023-07-02T10:25:28;19.70;99.90
16907;DHT22;8570;52.380;4.654;2023-07-02T10:30:37;19.70;99.90
16907;DHT22;8570;52.380;4.654;2023-07-02T10:35:46;19.80;99.90
16907;DHT22;8570;52.380;4.654;2023-07-02T10:41:05;20.00;99.90
16907;DHT22;8570;52.380;4.654;2023-07-02T10:46:26;20.20;99.90
16907;DHT22;8570;52.380;4.654;2023-07-02T10:52:01;20.40;99.90
16907;DHT22;8570;52.380;4.654;2023-07-02T10:57:22;20.50;99.90
16907;DHT22;8570;52.380;4.654;2023-07-02T11:02:45;20.50;99.90
16907;DHT22;8570;52.380;4.654;2023-07-02T11:08:19;20.60;99.90
16907;DHT22;8570;52.380;4.654;2023-07-02T11:13:30;20.60;98.90
16907;DHT22;8570;52.380;4.654;2023-07-02T11:18:49;20.60;99.50
16907;DHT22;8570;52.380;4.654;2023-07-02T11:24:05;20.80;99.40
16907;DHT22;8570;52.380;4.654;2023-07-02T11:29:29;20.90;98.40
16907;DHT22;8570;52.380;4.654;2023-07-02T11:34:56;21.00;98.00
16907;DHT22;8570;52.380;4.654;2023-07-02T11:40:12;21.00;97.70
16907;DHT22;8570;52.380;4.654;2023-07-02T11:45:51;20.80;97.20
16907;DHT22;8570;52.380;4.654;2023-07-02T11:51:20;20.90;97.40
16907;DHT22;8570;52.380;4.654;2023-07-02T12:08:33;20.90;96.90
16907;DHT22;8570;52.380;4.654;2023-07-02T12:14:14;21.00;97.70
16907;DHT22;8570;52.380;4.654;2023-07-02T12:19:41;21.00;97.50
16907;DHT22;8570;52.380;4.654;2023-07-02T12:30:46;21.10;98.40
16907;DHT22;8570;52.380;4.654;2023-07-02T12:36:02;21.20;99.00
16907;DHT22;8570;52.380;4.654;2023-07-02T12:41:31;21.30;98.80
16907;DHT22;8570;52.380;4.654;2023-07-02T12:46:48;21.30;98.00
16907;DHT22;8570;52.380;4.654;2023-07-02T12:52:30;21.30;98.20
16907;DHT22;8570;52.380;4.654;2023-07-02T12:57:52;21.20;97.50
16907;DHT22;8570;52.380;4.654;2023-07-02T13:03:14;21.20;96.90
16907;DHT22;8570;52.380;4.654;2023-07-02T13:08:22;21.20;97.30
16907;DHT22;8570;52.380;4.654;2023-07-02T13:13:34;21.10;97.40
16907;DHT22;8570;52.380;4.654;2023-07-02T13:24:00;21.10;97.10
16907;DHT22;8570;52.380;4.654;2023-07-02T13:29:02;21.10;97.70
16907;DHT22;8570;52.380;4.654;2023-07-02T13:34:05;21.20;97.00
16907;DHT22;8570;52.380;4.654;2023-07-02T13:39:08;21.20;97.20
16907;DHT22;8570;52.380;4.654;2023-07-02T13:44:14;21.10;96.30
16907;DHT22;8570;52.380;4.654;2023-07-02T13:49:18;21.20;97.20
16907;DHT22;8570;52.380;4.654;2023-07-02T13:54:21;21.40;96.70
16907;DHT22;8570;52.380;4.654;2023-07-02T13:59:30;21.50;96.70
16907;DHT22;8570;52.380;4.654;2023-07-02T14:04:32;21.50;96.40
16907;DHT22;8570;52.380;4.654;2023-07-02T14:09:34;21.50;96.60
16907;DHT22;8570;52.380;4.654;2023-07-02T14:14:46;21.30;95.90
16907;DHT22;8570;52.380;4.654;2023-07-02T14:19:50;21.40;95.90
16907;DHT22;8570;52.380;4.654;2023-07-02T14:24:52;21.50;95.30
16907;DHT22;8570;52.380;4.654;2023-07-02T14:30:01;21.40;95.50
16907;DHT22;8570;52.380;4.654;2023-07-02T14:35:08;21.30;94.60
16907;DHT22;8570;52.380;4.654;2023-07-02T14:40:14;21.20;93.30
16907;DHT22;8570;52.380;4.654;2023-07-02T14:45:31;21.10;92.10
16907;DHT22;8570;52.380;4.654;2023-07-02T14:50:33;21.10;92.90
16907;DHT22;8570;52.380;4.654;2023-07-02T14:55:41;21.20;92.50
16907;DHT22;8570;52.380;4.654;2023-07-02T15:00:45;21.30;92.60
16907;DHT22;8570;52.380;4.654;2023-07-02T15:05:52;21.40;92.60
16907;DHT22;8570;52.380;4.654;2023-07-02T15:11:12;21.40;93.20
16907;DHT22;8570;52.380;4.654;2023-07-02T15:16:16;21.30;92.50
16907;DHT22;8570;52.380;4.654;2023-07-02T15:21:22;21.20;92.60
16907;DHT22;8570;52.380;4.654;2023-07-02T15:26:32;21.10;93.60
16907;DHT22;8570;52.380;4.654;2023-07-02T15:31:40;20.90;93.70
16907;DHT22;8570;52.380;4.654;2023-07-02T15:36:57;20.80;94.60
16907;DHT22;8570;52.380;4.654;2023-07-02T15:41:59;20.70;95.20
16907;DHT22;8570;52.380;4.654;2023-07-02T15:47:08;20.60;94.70
16907;DHT22;8570;52.380;4.654;2023-07-02T15:52:15;20.50;95.40
16907;DHT22;8570;52.380;4.654;2023-07-02T15:57:17;20.50;95.80
16907;DHT22;8570;52.380;4.654;2023-07-02T16:02:26;20.50;95.80
16907;DHT22;8570;52.380;4.654;2023-07-02T16:07:34;20.40;95.80
16907;DHT22;8570;52.380;4.654;2023-07-02T16:12:36;20.40;95.50
16907;DHT22;8570;52.380;4.654;2023-07-02T16:17:42;20.40;96.20
16907;DHT22;8570;52.380;4.654;2023-07-02T16:22:44;20.40;95.70
16907;DHT22;8570;52.380;4.654;2023-07-02T16:27:47;20.40;96.20
16907;DHT22;8570;52.380;4.654;2023-07-02T16:32:54;20.30;95.90
16907;DHT22;8570;52.380;4.654;2023-07-02T16:38:02;20.20;96.10
16907;DHT22;8570;52.380;4.654;2023-07-02T16:43:06;20.10;96.60
16907;DHT22;8570;52.380;4.654;2023-07-02T16:48:11;19.90;96.30
16907;DHT22;8570;52.380;4.654;2023-07-02T16:53:13;19.90;96.90
16907;DHT22;8570;52.380;4.654;2023-07-02T16:58:15;19.90;97.00
16907;DHT22;8570;52.380;4.654;2023-07-02T17:03:21;19.80;97.70
16907;DHT22;8570;52.380;4.654;2023-07-02T17:08:24;19.70;98.70
16907;DHT22;8570;52.380;4.654;2023-07-02T17:13:29;19.60;99.50
16907;DHT22;8570;52.380;4.654;2023-07-02T17:18:33;19.60;99.90
16907;DHT22;8570;52.380;4.654;2023-07-02T17:23:36;19.50;99.90
16907;DHT22;8570;52.380;4.654;2023-07-02T17:28:38;19.40;99.90
16907;DHT22;8570;52.380;4.654;2023-07-02T17:33:41;19.30;99.90
16907;DHT22;8570;52.380;4.654;2023-07-02T17:38:46;19.30;99.90
16907;DHT22;8570;52.380;4.654;2023-07-02T17:43:49;19.30;99.90
16907;DHT22;8570;52.380;4.654;2023-07-02T17:49:04;19.20;99.90
16907;DHT22;8570;52.380;4.654;2023-07-02T17:54:08;19.10;99.90
16907;DHT22;8570;52.380;4.654;2023-07-02T17:59:11;19.00;99.90
16907;DHT22;8570;52.380;4.654;2023-07-02T18:04:16;19.00;99.90
16907;DHT22;8570;52.380;4.654;2023-07-02T18:09:20;18.90;99.90
16907;DHT22;8570;52.380;4.654;2023-07-02T18:14:24;18.90;99.90
16907;DHT22;8570;52.380;4.654;2023-07-02T18:19:28;18.90;99.90
16907;DHT22;8570;52.380;4.654;2023-07-02T18:24:34;18.80;99.90
16907;DHT22;8570;52.380;4.654;2023-07-02T18:29:36;18.70;99.90
16907;DHT22;8570;52.380;4.654;2023-07-02T18:34:42;18.60;99.90
16907;DHT22;8570;52.380;4.654;2023-07-02T18:39:56;18.60;99.90
16907;DHT22;8570;52.380;4.654;2023-07-02T18:44:58;18.50;99.90
16907;DHT22;8570;52.380;4.654;2023-07-02T18:50:02;18.50;99.90
16907;DHT22;8570;52.380;4.654;2023-07-02T18:55:08;18.40;99.90
16907;DHT22;8570;52.380;4.654;2023-07-02T19:00:12;18.40;99.90
16907;DHT22;8570;52.380;4.654;2023-07-02T19:05:45;18.40;99.90
16907;DHT22;8570;52.380;4.654;2023-07-02T19:11:03;18.30;99.90
16907;DHT22;8570;52.380;4.654;2023-07-02T19:16:10;18.30;99.90
16907;DHT22;8570;52.380;4.654;2023-07-02T19:21:14;18.20;99.90
16907;DHT22;8570;52.380;4.654;2023-07-02T19:26:18;18.20;99.90
16907;DHT22;8570;52.380;4.654;2023-07-02T19:31:24;18.20;99.90
16907;DHT22;8570;52.380;4.654;2023-07-02T19:36:28;18.20;99.90
16907;DHT22;8570;52.380;4.654;2023-07-02T19:41:30;18.20;99.90
16907;DHT22;8570;52.380;4.654;2023-07-02T19:46:32;18.10;99.90
16907;DHT22;8570;52.380;4.654;2023-07-02T19:51:37;18.00;99.90
16907;DHT22;8570;52.380;4.654;2023-07-02T19:56:44;18.00;99.90
16907;DHT22;8570;52.380;4.654;2023-07-02T20:01:49;18.00;99.90
16907;DHT22;8570;52.380;4.654;2023-07-02T20:07:01;18.00;99.90
16907;DHT22;8570;52.380;4.654;2023-07-02T20:12:06;18.00;99.90
16907;DHT22;8570;52.380;4.654;2023-07-02T20:17:11;17.90;99.90
16907;DHT22;8570;52.380;4.654;2023-07-02T20:22:19;17.90;99.90
16907;DHT22;8570;52.380;4.654;2023-07-02T20:27:30;17.90;99.90
16907;DHT22;8570;52.380;4.654;2023-07-02T20:32:32;17.90;99.90
16907;DHT22;8570;52.380;4.654;2023-07-02T20:37:38;17.90;99.90
16907;DHT22;8570;52.380;4.654;2023-07-02T20:42:43;17.90;99.90
16907;DHT22;8570;52.380;4.654;2023-07-02T20:47:51;17.80;99.90
16907;DHT22;8570;52.380;4.654;2023-07-02T20:52:56;17.80;99.90
16907;DHT22;8570;52.380;4.654;2023-07-02T20:58:08;17.70;99.90
16907;DHT22;8570;52.380;4.654;2023-07-02T21:03:10;17.70;99.90
16907;DHT22;8570;52.380;4.654;2023-07-02T21:08:14;17.70;99.90
16907;DHT22;8570;52.380;4.654;2023-07-02T21:13:16;17.70;99.90
16907;DHT22;8570;52.380;4.654;2023-07-02T21:18:24;17.70;99.90
16907;DHT22;8570;52.380;4.654;2023-07-02T21:23:31;17.80;99.90
16907;DHT22;8570;52.380;4.654;2023-07-02T21:28:36;17.70;99.90
16907;DHT22;8570;52.380;4.654;2023-07-02T21:33:39;17.70;99.90
16907;DHT22;8570;52.380;4.654;2023-07-02T21:38:51;17.70;99.90
16907;DHT22;8570;52.380;4.654;2023-07-02T21:43:53;17.70;99.90
16907;DHT22;8570;52.380;4.654;2023-07-02T21:48:57;17.70;99.90
16907;DHT22;8570;52.380;4.654;2023-07-02T21:54:02;17.70;99.90
16907;DHT22;8570;52.380;4.654;2023-07-02T21:59:04;17.70;99.90
16907;DHT22;8570;52.380;4.654;2023-07-02T22:04:19;17.70;99.90
16907;DHT22;8570;52.380;4.654;2023-07-02T22:09:25;17.60;99.90
16907;DHT22;8570;52.380;4.654;2023-07-02T22:14:30;17.70;99.90
16907;DHT22;8570;52.380;4.654;2023-07-02T22:19:50;17.70;99.90
16907;DHT22;8570;52.380;4.654;2023-07-02T22:25:08;17.60;99.90
16907;DHT22;8570;52.380;4.654;2023-07-02T22:30:12;17.60;99.90
16907;DHT22;8570;52.380;4.654;2023-07-02T22:35:15;17.60;99.90
16907;DHT22;8570;52.380;4.654;2023-07-02T22:40:22;17.60;99.90
16907;DHT22;8570;52.380;4.654;2023-07-02T22:45:28;17.60;99.90
16907;DHT22;8570;52.380;4.654;2023-07-02T22:50:33;17.50;99.90
16907;DHT22;8570;52.380;4.654;2023-07-02T22:55:37;17.50;99.90
16907;DHT22;8570;52.380;4.654;2023-07-02T23:00:52;17.50;99.90
16907;DHT22;8570;52.380;4.654;2023-07-02T23:06:00;17.50;99.90
16907;DHT22;8570;52.380;4.654;2023-07-02T23:11:05;17.50;99.90
16907;DHT22;8570;52.380;4.654;2023-07-02T23:16:07;17.50;99.90
16907;DHT22;8570;52.380;4.654;2023-07-02T23:21:13;17.50;99.90
16907;DHT22;8570;52.380;4.654;2023-07-02T23:26:25;17.50;99.90
16907;DHT22;8570;52.380;4.654;2023-07-02T23:31:37;17.50;99.90
16907;DHT22;8570;52.380;4.654;2023-07-02T23:36:49;17.50;99.90
16907;DHT22;8570;52.380;4.654;2023-07-02T23:41:53;17.40;99.90
16907;DHT22;8570;52.380;4.654;2023-07-02T23:47:12;17.40;99.90
16907;DHT22;8570;52.380;4.654;2023-07-02T23:52:19;17.40;99.90
16907;DHT22;8570;52.380;4.654;2023-07-02T23:57:23;17.40;99.90
